sensor_id;sensor_type;location;lat;lon;timestamp;P1;durP1;ratioP1;P2;durP2;ratioP2
82805;SDS011;72558;51.000;-3.112;2024-01-27T00:00:34;30.0;;;13.5;;
82805;SDS011;72558;51.000;-3.112;2024-01-27T00:03:33;28.7;;;12.4;;
82805;SDS011;72558;51.000;-3.112;2024-01-27T00:06:33;28.7;;;12.7;;
82805;SDS011;72558;51.000;-3.112;2024-01-27T00:09:34;25.9;;;12.6;;
82805;SDS011;72558;51.000;-3.112;2024-01-27T00:12:34;25.8;;;11.7;;
82805;SDS011;72558;51.000;-3.112;2024-01-27T00:15:34;28.0;;;11.5;;
82805;SDS011;72558;51.000;-3.112;2024-01-27T00:18:33;27.0;;;10.4;;
82805;SDS011;72558;51.000;-3.112;2024-01-27T00:21:34;28.9;;;13.3;;
82805;SDS011;72558;51.000;-3.112;2024-01-27T00:24:34;30.0;;;12.3;;
82805;SDS011;72558;51.000;-3.112;2024-01-27T00:27:33;24.5;;;11.6;;
82805;SDS011;72558;51.000;-3.112;2024-01-27T00:30:34;24.9;;;10.5;;
82805;SDS011;72558;51.000;-3.112;2024-01-27T00:33:34;25.1;;;9.8;;
82805;SDS011;72558;51.000;-3.112;2024-01-27T00:36:33;23.4;;;9.7;;
82805;SDS011;72558;51.000;-3.112;2024-01-27T00:39:34;21.1;;;8.8;;
82805;SDS011;72558;51.000;-3.112;2024-01-27T00:42:34;23.5;;;9.9;;
82805;SDS011;72558;51.000;-3.112;2024-01-27T00:45:34;22.4;;;9.4;;
82805;SDS011;72558;51.000;-3.112;2024-01-27T00:48:34;23.3;;;9.8;;
82805;SDS011;72558;51.000;-3.112;2024-01-27T00:51:33;18.3;;;8.8;;
82805;SDS011;72558;51.000;-3.112;2024-01-27T00:54:34;22.2;;;9.0;;
82805;SDS011;72558;51.000;-3.112;2024-01-27T00:57:34;25.8;;;9.4;;
82805;SDS011;72558;51.000;-3.112;2024-01-27T01:00:34;22.3;;;9.1;;
82805;SDS011;72558;51.000;-3.112;2024-01-27T01:03:34;27.4;;;10.6;;
82805;SDS011;72558;51.000;-3.112;2024-01-27T01:06:33;25.7;;;9.0;;
82805;SDS011;72558;51.000;-3.112;2024-01-27T01:09:34;24.7;;;9.9;;
82805;SDS011;72558;51.000;-3.112;2024-01-27T01:12:34;26.0;;;9.3;;
82805;SDS011;72558;51.000;-3.112;2024-01-27T01:15:34;23.8;;;9.4;;
82805;SDS011;72558;51.000;-3.112;2024-01-27T01:18:34;23.9;;;8.9;;
82805;SDS011;72558;51.000;-3.112;2024-01-27T01:21:34;24.5;;;9.0;;
82805;SDS011;72558;51.000;-3.112;2024-01-27T01:24:33;23.6;;;9.6;;
82805;SDS011;72558;51.000;-3.112;2024-01-27T01:27:34;20.6;;;9.0;;
82805;SDS011;72558;51.000;-3.112;2024-01-27T01:30:34;23.0;;;8.7;;
82805;SDS011;72558;51.000;-3.112;2024-01-27T01:33:34;21.2;;;8.4;;
82805;SDS011;72558;51.000;-3.112;2024-01-27T01:36:34;22.0;;;8.4;;
82805;SDS011;72558;51.000;-3.112;2024-01-27T01:39:33;20.0;;;8.6;;
82805;SDS011;72558;51.000;-3.112;2024-01-27T01:42:34;23.1;;;9.2;;
82805;SDS011;72558;51.000;-3.112;2024-01-27T01:45:34;21.8;;;8.6;;
82805;SDS011;72558;51.000;-3.112;2024-01-27T01:48:34;22.4;;;9.0;;
82805;SDS011;72558;51.000;-3.112;2024-01-27T01:51:33;23.3;;;9.2;;
82805;SDS011;72558;51.000;-3.112;2024-01-27T01:54:34;23.6;;;9.3;;
82805;SDS011;72558;51.000;-3.112;2024-01-27T01:57:34;26.0;;;8.3;;
82805;SDS011;72558;51.000;-3.112;2024-01-27T02:00:33;21.3;;;8.3;;
82805;SDS011;72558;51.000;-3.112;2024-01-27T02:03:34;20.5;;;8.4;;
82805;SDS011;72558;51.000;-3.112;2024-01-27T02:06:34;22.8;;;8.5;;
82805;SDS011;72558;51.000;-3.112;2024-01-27T02:09:34;26.2;;;9.1;;
82805;SDS011;72558;51.000;-3.112;2024-01-27T02:12:33;28.6;;;9.7;;
82805;SDS011;72558;51.000;-3.112;2024-01-27T02:15:34;24.4;;;9.1;;
82805;SDS011;72558;51.000;-3.112;2024-01-27T02:18:33;24.2;;;8.7;;
82805;SDS011;72558;51.000;-3.112;2024-01-27T02:21:34;21.1;;;8.0;;
82805;SDS011;72558;51.000;-3.112;2024-01-27T02:24:34;23.4;;;9.1;;
82805;SDS011;72558;51.000;-3.112;2024-01-27T02:27:33;20.9;;;7.8;;
82805;SDS011;72558;51.000;-3.112;2024-01-27T02:30:34;22.5;;;7.7;;
82805;SDS011;72558;51.000;-3.112;2024-01-27T02:33:34;20.6;;;8.0;;
82805;SDS011;72558;51.000;-3.112;2024-01-27T02:36:33;20.4;;;8.3;;
82805;SDS011;72558;51.000;-3.112;2024-01-27T02:39:34;20.4;;;7.9;;
82805;SDS011;72558;51.000;-3.112;2024-01-27T02:42:34;20.8;;;8.7;;
82805;SDS011;72558;51.000;-3.112;2024-01-27T02:45:34;21.8;;;7.6;;
82805;SDS011;72558;51.000;-3.112;2024-01-27T02:48:34;21.6;;;8.0;;
82805;SDS011;72558;51.000;-3.112;2024-01-27T02:51:34;24.7;;;8.3;;
82805;SDS011;72558;51.000;-3.112;2024-01-27T02:54:34;21.7;;;7.8;;
82805;SDS011;72558;51.000;-3.112;2024-01-27T02:57:34;20.2;;;7.0;;
82805;SDS011;72558;51.000;-3.112;2024-01-27T03:00:34;21.1;;;7.7;;
82805;SDS011;72558;51.000;-3.112;2024-01-27T03:03:33;18.0;;;7.0;;
82805;SDS011;72558;51.000;-3.112;2024-01-27T03:06:34;23.7;;;7.6;;
82805;SDS011;72558;51.000;-3.112;2024-01-27T03:09:34;23.5;;;7.7;;
82805;SDS011;72558;51.000;-3.112;2024-01-27T03:12:34;19.6;;;7.0;;
82805;SDS011;72558;51.000;-3.112;2024-01-27T03:15:34;22.2;;;7.9;;
82805;SDS011;72558;51.000;-3.112;2024-01-27T03:18:33;21.7;;;6.9;;
82805;SDS011;72558;51.000;-3.112;2024-01-27T03:21:34;18.0;;;6.1;;
82805;SDS011;72558;51.000;-3.112;2024-01-27T03:24:34;18.5;;;6.5;;
82805;SDS011;72558;51.000;-3.112;2024-01-27T03:27:34;20.8;;;7.2;;
82805;SDS011;72558;51.000;-3.112;2024-01-27T03:30:34;20.8;;;7.6;;
82805;SDS011;72558;51.000;-3.112;2024-01-27T03:33:34;19.0;;;7.2;;
82805;SDS011;72558;51.000;-3.112;2024-01-27T03:36:34;20.8;;;7.1;;
82805;SDS011;72558;51.000;-3.112;2024-01-27T03:39:34;20.2;;;7.4;;
82805;SDS011;72558;51.000;-3.112;2024-01-27T03:42:34;20.2;;;6.4;;
82805;SDS011;72558;51.000;-3.112;2024-01-27T03:45:34;18.1;;;6.8;;
82805;SDS011;72558;51.000;-3.112;2024-01-27T03:48:34;19.3;;;6.5;;
82805;SDS011;72558;51.000;-3.112;2024-01-27T03:51:34;23.9;;;7.3;;
82805;SDS011;72558;51.000;-3.112;2024-01-27T03:54:34;20.0;;;7.3;;
82805;SDS011;72558;51.000;-3.112;2024-01-27T03:57:34;20.9;;;7.3;;
82805;SDS011;72558;51.000;-3.112;2024-01-27T04:00:34;20.1;;;7.8;;
82805;SDS011;72558;51.000;-3.112;2024-01-27T04:03:33;23.4;;;7.0;;
82805;SDS011;72558;51.000;-3.112;2024-01-27T04:06:34;20.5;;;6.8;;
82805;SDS011;72558;51.000;-3.112;2024-01-27T04:09:34;20.1;;;7.6;;
82805;SDS011;72558;51.000;-3.112;2024-01-27T04:12:34;20.9;;;7.3;;
82805;SDS011;72558;51.000;-3.112;2024-01-27T04:15:33;17.8;;;6.3;;
82805;SDS011;72558;51.000;-3.112;2024-01-27T04:18:34;23.2;;;7.4;;
82805;SDS011;72558;51.000;-3.112;2024-01-27T04:21:34;22.8;;;7.2;;
82805;SDS011;72558;51.000;-3.112;2024-01-27T04:24:34;18.1;;;6.6;;
82805;SDS011;72558;51.000;-3.112;2024-01-27T04:27:34;19.0;;;7.3;;
82805;SDS011;72558;51.000;-3.112;2024-01-27T04:30:33;29.4;;;9.0;;
82805;SDS011;72558;51.000;-3.112;2024-01-27T04:33:34;30.0;;;8.7;;
82805;SDS011;72558;51.000;-3.112;2024-01-27T04:36:34;22.2;;;7.3;;
82805;SDS011;72558;51.000;-3.112;2024-01-27T04:39:34;25.3;;;8.5;;
82805;SDS011;72558;51.000;-3.112;2024-01-27T04:42:34;24.6;;;8.4;;
82805;SDS011;72558;51.000;-3.112;2024-01-27T04:45:34;27.6;;;8.7;;
82805;SDS011;72558;51.000;-3.112;2024-01-27T04:48:34;23.4;;;7.9;;
82805;SDS011;72558;51.000;-3.112;2024-01-27T04:51:34;26.5;;;8.2;;
82805;SDS011;72558;51.000;-3.112;2024-01-27T04:54:34;27.2;;;8.7;;
82805;SDS011;72558;51.000;-3.112;2024-01-27T04:57:34;23.5;;;7.7;;
82805;SDS011;72558;51.000;-3.112;2024-01-27T05:00:34;21.2;;;7.5;;
82805;SDS011;72558;51.000;-3.112;2024-01-27T05:03:34;22.2;;;7.8;;
82805;SDS011;72558;51.000;-3.112;2024-01-27T05:06:34;18.9;;;7.3;;
82805;SDS011;72558;51.000;-3.112;2024-01-27T05:09:33;19.2;;;7.1;;
82805;SDS011;72558;51.000;-3.112;2024-01-27T05:12:34;21.1;;;7.2;;
82805;SDS011;72558;51.000;-3.112;2024-01-27T05:15:34;20.7;;;7.1;;
82805;SDS011;72558;51.000;-3.112;2024-01-27T05:18:33;22.2;;;6.7;;
82805;SDS011;72558;51.000;-3.112;2024-01-27T05:21:34;20.2;;;7.3;;
82805;SDS011;72558;51.000;-3.112;2024-01-27T05:24:34;21.2;;;6.9;;
82805;SDS011;72558;51.000;-3.112;2024-01-27T05:27:34;21.6;;;6.7;;
82805;SDS011;72558;51.000;-3.112;2024-01-27T05:30:34;18.7;;;7.0;;
82805;SDS011;72558;51.000;-3.112;2024-01-27T05:33:34;20.0;;;6.3;;
82805;SDS011;72558;51.000;-3.112;2024-01-27T05:36:33;23.8;;;7.0;;
82805;SDS011;72558;51.000;-3.112;2024-01-27T05:39:34;21.4;;;6.6;;
82805;SDS011;72558;51.000;-3.112;2024-01-27T05:42:34;21.1;;;7.2;;
82805;SDS011;72558;51.000;-3.112;2024-01-27T05:45:34;14.8;;;6.3;;
82805;SDS011;72558;51.000;-3.112;2024-01-27T05:48:34;18.9;;;6.5;;
82805;SDS011;72558;51.000;-3.112;2024-01-27T05:51:33;23.1;;;7.6;;
82805;SDS011;72558;51.000;-3.112;2024-01-27T05:54:34;19.2;;;6.8;;
82805;SDS011;72558;51.000;-3.112;2024-01-27T05:57:34;22.3;;;7.1;;
82805;SDS011;72558;51.000;-3.112;2024-01-27T06:00:34;20.2;;;6.8;;
82805;SDS011;72558;51.000;-3.112;2024-01-27T06:03:33;19.1;;;7.0;;
82805;SDS011;72558;51.000;-3.112;2024-01-27T06:06:34;19.9;;;6.9;;
82805;SDS011;72558;51.000;-3.112;2024-01-27T06:09:33;18.2;;;6.6;;
82805;SDS011;72558;51.000;-3.112;2024-01-27T06:12:34;21.5;;;8.1;;
82805;SDS011;72558;51.000;-3.112;2024-01-27T06:15:34;27.1;;;8.9;;
82805;SDS011;72558;51.000;-3.112;2024-01-27T06:18:33;24.2;;;8.9;;
82805;SDS011;72558;51.000;-3.112;2024-01-27T06:21:34;24.5;;;8.5;;
82805;SDS011;72558;51.000;-3.112;2024-01-27T06:24:34;25.3;;;8.5;;
82805;SDS011;72558;51.000;-3.112;2024-01-27T06:27:33;23.6;;;9.1;;
82805;SDS011;72558;51.000;-3.112;2024-01-27T06:30:34;26.1;;;8.5;;
82805;SDS011;72558;51.000;-3.112;2024-01-27T06:33:34;25.0;;;8.4;;
82805;SDS011;72558;51.000;-3.112;2024-01-27T06:36:33;25.0;;;8.8;;
82805;SDS011;72558;51.000;-3.112;2024-01-27T06:39:34;21.7;;;7.9;;
82805;SDS011;72558;51.000;-3.112;2024-01-27T06:42:34;21.7;;;7.4;;
82805;SDS011;72558;51.000;-3.112;2024-01-27T06:45:34;24.7;;;8.8;;
82805;SDS011;72558;51.000;-3.112;2024-01-27T06:48:33;22.1;;;7.5;;
82805;SDS011;72558;51.000;-3.112;2024-01-27T06:51:34;20.6;;;7.8;;
82805;SDS011;72558;51.000;-3.112;2024-01-27T06:54:34;22.2;;;7.5;;
82805;SDS011;72558;51.000;-3.112;2024-01-27T06:57:34;21.3;;;7.7;;
82805;SDS011;72558;51.000;-3.112;2024-01-27T07:00:33;22.1;;;7.3;;
82805;SDS011;72558;51.000;-3.112;2024-01-27T07:03:34;21.1;;;7.3;;
82805;SDS011;72558;51.000;-3.112;2024-01-27T07:06:34;20.7;;;7.0;;
82805;SDS011;72558;51.000;-3.112;2024-01-27T07:09:34;20.7;;;7.1;;
82805;SDS011;72558;51.000;-3.112;2024-01-27T07:12:34;24.6;;;6.8;;
82805;SDS011;72558;51.000;-3.112;2024-01-27T07:15:34;22.9;;;7.9;;
82805;SDS011;72558;51.000;-3.112;2024-01-27T07:18:33;19.9;;;7.3;;
82805;SDS011;72558;51.000;-3.112;2024-01-27T07:21:34;21.3;;;7.0;;
82805;SDS011;72558;51.000;-3.112;2024-01-27T07:24:34;24.1;;;7.8;;
82805;SDS011;72558;51.000;-3.112;2024-01-27T07:27:33;20.6;;;7.5;;
82805;SDS011;72558;51.000;-3.112;2024-01-27T07:30:34;23.7;;;7.1;;
82805;SDS011;72558;51.000;-3.112;2024-01-27T07:33:34;20.3;;;6.9;;
82805;SDS011;72558;51.000;-3.112;2024-01-27T07:36:33;23.8;;;7.9;;
82805;SDS011;72558;51.000;-3.112;2024-01-27T07:39:34;17.6;;;6.8;;
82805;SDS011;72558;51.000;-3.112;2024-01-27T07:42:34;21.4;;;6.8;;
82805;SDS011;72558;51.000;-3.112;2024-01-27T07:45:34;22.8;;;8.6;;
82805;SDS011;72558;51.000;-3.112;2024-01-27T07:48:34;27.0;;;9.3;;
82805;SDS011;72558;51.000;-3.112;2024-01-27T07:51:34;22.4;;;8.4;;
82805;SDS011;72558;51.000;-3.112;2024-01-27T07:54:33;26.3;;;9.1;;
82805;SDS011;72558;51.000;-3.112;2024-01-27T07:57:34;23.1;;;8.1;;
82805;SDS011;72558;51.000;-3.112;2024-01-27T08:00:34;26.0;;;8.2;;
82805;SDS011;72558;51.000;-3.112;2024-01-27T08:03:34;21.3;;;7.6;;
82805;SDS011;72558;51.000;-3.112;2024-01-27T08:06:34;22.0;;;8.0;;
82805;SDS011;72558;51.000;-3.112;2024-01-27T08:09:34;23.4;;;8.1;;
82805;SDS011;72558;51.000;-3.112;2024-01-27T08:12:34;30.3;;;9.9;;
82805;SDS011;72558;51.000;-3.112;2024-01-27T08:15:34;26.4;;;8.5;;
82805;SDS011;72558;51.000;-3.112;2024-01-27T08:18:34;23.5;;;8.7;;
82805;SDS011;72558;51.000;-3.112;2024-01-27T08:21:34;26.8;;;9.2;;
82805;SDS011;72558;51.000;-3.112;2024-01-27T08:24:33;20.0;;;8.6;;
82805;SDS011;72558;51.000;-3.112;2024-01-27T08:27:34;22.2;;;8.1;;
82805;SDS011;72558;51.000;-3.112;2024-01-27T08:30:34;25.9;;;8.4;;
82805;SDS011;72558;51.000;-3.112;2024-01-27T08:33:33;22.6;;;8.5;;
82805;SDS011;72558;51.000;-3.112;2024-01-27T08:36:34;24.7;;;8.5;;
82805;SDS011;72558;51.000;-3.112;2024-01-27T08:39:34;23.0;;;8.3;;
82805;SDS011;72558;51.000;-3.112;2024-01-27T08:42:33;21.1;;;8.6;;
82805;SDS011;72558;51.000;-3.112;2024-01-27T08:45:33;20.4;;;7.2;;
82805;SDS011;72558;51.000;-3.112;2024-01-27T08:48:33;20.4;;;7.8;;
82805;SDS011;72558;51.000;-3.112;2024-01-27T08:51:34;20.7;;;7.8;;
82805;SDS011;72558;51.000;-3.112;2024-01-27T08:54:34;20.6;;;7.3;;
82805;SDS011;72558;51.000;-3.112;2024-01-27T08:57:33;20.4;;;7.2;;
82805;SDS011;72558;51.000;-3.112;2024-01-27T09:00:34;26.4;;;8.3;;
82805;SDS011;72558;51.000;-3.112;2024-01-27T09:03:34;26.1;;;8.6;;
82805;SDS011;72558;51.000;-3.112;2024-01-27T09:06:36;35.0;;;18.1;;
82805;SDS011;72558;51.000;-3.112;2024-01-27T09:09:34;32.7;;;15.5;;
82805;SDS011;72558;51.000;-3.112;2024-01-27T09:12:34;30.3;;;14.1;;
82805;SDS011;72558;51.000;-3.112;2024-01-27T09:15:34;27.0;;;12.6;;
82805;SDS011;72558;51.000;-3.112;2024-01-27T09:18:33;26.2;;;10.6;;
82805;SDS011;72558;51.000;-3.112;2024-01-27T09:21:34;20.6;;;9.1;;
82805;SDS011;72558;51.000;-3.112;2024-01-27T09:24:34;20.4;;;7.8;;
82805;SDS011;72558;51.000;-3.112;2024-01-27T09:27:33;24.3;;;9.5;;
82805;SDS011;72558;51.000;-3.112;2024-01-27T09:30:33;20.7;;;10.3;;
82805;SDS011;72558;51.000;-3.112;2024-01-27T09:33:34;28.6;;;12.4;;
82805;SDS011;72558;51.000;-3.112;2024-01-27T09:36:34;29.5;;;13.5;;
82805;SDS011;72558;51.000;-3.112;2024-01-27T09:39:34;30.3;;;12.8;;
82805;SDS011;72558;51.000;-3.112;2024-01-27T09:42:33;29.1;;;13.5;;
82805;SDS011;72558;51.000;-3.112;2024-01-27T09:45:34;27.3;;;10.5;;
82805;SDS011;72558;51.000;-3.112;2024-01-27T09:48:33;26.4;;;11.4;;
82805;SDS011;72558;51.000;-3.112;2024-01-27T09:51:34;22.5;;;10.6;;
82805;SDS011;72558;51.000;-3.112;2024-01-27T09:54:34;28.4;;;11.1;;
82805;SDS011;72558;51.000;-3.112;2024-01-27T09:57:34;25.5;;;13.6;;
82805;SDS011;72558;51.000;-3.112;2024-01-27T10:00:33;28.7;;;12.8;;
82805;SDS011;72558;51.000;-3.112;2024-01-27T10:03:34;27.7;;;16.4;;
82805;SDS011;72558;51.000;-3.112;2024-01-27T10:06:34;33.5;;;19.3;;
82805;SDS011;72558;51.000;-3.112;2024-01-27T10:09:34;34.5;;;20.2;;
82805;SDS011;72558;51.000;-3.112;2024-01-27T10:12:33;40.7;;;22.2;;
82805;SDS011;72558;51.000;-3.112;2024-01-27T10:15:34;42.4;;;22.6;;
82805;SDS011;72558;51.000;-3.112;2024-01-27T10:18:34;43.6;;;27.0;;
82805;SDS011;72558;51.000;-3.112;2024-01-27T10:21:34;38.9;;;23.3;;
82805;SDS011;72558;51.000;-3.112;2024-01-27T10:24:34;33.7;;;19.7;;
82805;SDS011;72558;51.000;-3.112;2024-01-27T10:27:33;30.8;;;16.9;;
82805;SDS011;72558;51.000;-3.112;2024-01-27T10:30:34;29.2;;;14.8;;
82805;SDS011;72558;51.000;-3.112;2024-01-27T10:33:34;25.2;;;12.3;;
82805;SDS011;72558;51.000;-3.112;2024-01-27T10:36:34;25.0;;;12.2;;
82805;SDS011;72558;51.000;-3.112;2024-01-27T10:39:33;29.1;;;14.1;;
82805;SDS011;72558;51.000;-3.112;2024-01-27T10:42:34;28.2;;;13.5;;
82805;SDS011;72558;51.000;-3.112;2024-01-27T10:45:33;27.3;;;13.0;;
82805;SDS011;72558;51.000;-3.112;2024-01-27T10:48:33;27.4;;;13.7;;
82805;SDS011;72558;51.000;-3.112;2024-01-27T10:51:34;26.1;;;11.6;;
82805;SDS011;72558;51.000;-3.112;2024-01-27T10:54:34;28.7;;;13.2;;
82805;SDS011;72558;51.000;-3.112;2024-01-27T10:57:33;28.7;;;13.6;;
82805;SDS011;72558;51.000;-3.112;2024-01-27T11:00:34;27.5;;;11.8;;
82805;SDS011;72558;51.000;-3.112;2024-01-27T11:03:34;25.8;;;11.6;;
82805;SDS011;72558;51.000;-3.112;2024-01-27T11:06:34;23.9;;;11.0;;
82805;SDS011;72558;51.000;-3.112;2024-01-27T11:09:35;23.7;;;10.1;;
82805;SDS011;72558;51.000;-3.112;2024-01-27T11:12:34;22.4;;;10.1;;
82805;SDS011;72558;51.000;-3.112;2024-01-27T11:15:34;23.1;;;9.5;;
82805;SDS011;72558;51.000;-3.112;2024-01-27T11:18:34;23.3;;;9.0;;
82805;SDS011;72558;51.000;-3.112;2024-01-27T11:21:34;20.2;;;8.7;;
82805;SDS011;72558;51.000;-3.112;2024-01-27T11:24:33;24.9;;;8.3;;
82805;SDS011;72558;51.000;-3.112;2024-01-27T11:27:34;20.5;;;7.9;;
82805;SDS011;72558;51.000;-3.112;2024-01-27T11:30:34;21.6;;;8.4;;
82805;SDS011;72558;51.000;-3.112;2024-01-27T11:33:34;24.4;;;7.9;;
82805;SDS011;72558;51.000;-3.112;2024-01-27T11:36:34;27.8;;;8.3;;
82805;SDS011;72558;51.000;-3.112;2024-01-27T11:39:34;21.5;;;7.3;;
82805;SDS011;72558;51.000;-3.112;2024-01-27T11:42:34;20.1;;;6.9;;
82805;SDS011;72558;51.000;-3.112;2024-01-27T11:45:34;23.8;;;7.3;;
82805;SDS011;72558;51.000;-3.112;2024-01-27T11:48:34;23.7;;;7.6;;
82805;SDS011;72558;51.000;-3.112;2024-01-27T11:51:34;21.8;;;7.2;;
82805;SDS011;72558;51.000;-3.112;2024-01-27T11:54:34;24.3;;;8.2;;
82805;SDS011;72558;51.000;-3.112;2024-01-27T11:57:34;26.2;;;10.3;;
82805;SDS011;72558;51.000;-3.112;2024-01-27T12:00:34;28.0;;;11.1;;
82805;SDS011;72558;51.000;-3.112;2024-01-27T12:03:34;25.4;;;10.9;;
82805;SDS011;72558;51.000;-3.112;2024-01-27T12:06:33;31.1;;;9.8;;
82805;SDS011;72558;51.000;-3.112;2024-01-27T12:09:34;20.9;;;8.4;;
82805;SDS011;72558;51.000;-3.112;2024-01-27T12:12:34;26.5;;;8.8;;
82805;SDS011;72558;51.000;-3.112;2024-01-27T12:15:33;20.1;;;5.6;;
82805;SDS011;72558;51.000;-3.112;2024-01-27T12:18:34;17.6;;;2.5;;
82805;SDS011;72558;51.000;-3.112;2024-01-27T12:21:34;18.0;;;2.2;;
82805;SDS011;72558;51.000;-3.112;2024-01-27T12:24:34;17.9;;;3.0;;
82805;SDS011;72558;51.000;-3.112;2024-01-27T12:27:34;20.7;;;2.7;;
82805;SDS011;72558;51.000;-3.112;2024-01-27T12:30:33;16.0;;;2.0;;
82805;SDS011;72558;51.000;-3.112;2024-01-27T12:33:34;17.3;;;2.3;;
82805;SDS011;72558;51.000;-3.112;2024-01-27T12:36:34;16.2;;;2.3;;
82805;SDS011;72558;51.000;-3.112;2024-01-27T12:39:33;17.7;;;2.7;;
82805;SDS011;72558;51.000;-3.112;2024-01-27T12:42:34;17.6;;;2.6;;
82805;SDS011;72558;51.000;-3.112;2024-01-27T12:45:33;16.1;;;2.7;;
82805;SDS011;72558;51.000;-3.112;2024-01-27T12:48:34;14.4;;;2.2;;
82805;SDS011;72558;51.000;-3.112;2024-01-27T12:51:33;15.9;;;2.5;;
82805;SDS011;72558;51.000;-3.112;2024-01-27T12:54:34;21.7;;;2.9;;
82805;SDS011;72558;51.000;-3.112;2024-01-27T12:57:34;17.3;;;2.3;;
82805;SDS011;72558;51.000;-3.112;2024-01-27T13:00:34;17.2;;;2.2;;
82805;SDS011;72558;51.000;-3.112;2024-01-27T13:03:34;18.2;;;2.3;;
82805;SDS011;72558;51.000;-3.112;2024-01-27T13:06:34;21.0;;;3.0;;
82805;SDS011;72558;51.000;-3.112;2024-01-27T13:09:34;20.6;;;2.6;;
82805;SDS011;72558;51.000;-3.112;2024-01-27T13:12:33;19.2;;;2.6;;
82805;SDS011;72558;51.000;-3.112;2024-01-27T13:15:34;23.7;;;2.6;;
82805;SDS011;72558;51.000;-3.112;2024-01-27T13:18:34;20.8;;;2.3;;
82805;SDS011;72558;51.000;-3.112;2024-01-27T13:21:34;15.8;;;2.5;;
82805;SDS011;72558;51.000;-3.112;2024-01-27T13:24:34;14.5;;;2.1;;
82805;SDS011;72558;51.000;-3.112;2024-01-27T13:27:33;14.7;;;2.3;;
82805;SDS011;72558;51.000;-3.112;2024-01-27T13:30:34;17.0;;;2.2;;
82805;SDS011;72558;51.000;-3.112;2024-01-27T13:33:34;19.2;;;2.2;;
82805;SDS011;72558;51.000;-3.112;2024-01-27T13:36:33;17.9;;;2.6;;
82805;SDS011;72558;51.000;-3.112;2024-01-27T13:39:34;18.5;;;2.8;;
82805;SDS011;72558;51.000;-3.112;2024-01-27T13:42:34;18.1;;;2.4;;
82805;SDS011;72558;51.000;-3.112;2024-01-27T13:45:34;20.2;;;2.5;;
82805;SDS011;72558;51.000;-3.112;2024-01-27T13:48:34;19.4;;;2.9;;
82805;SDS011;72558;51.000;-3.112;2024-01-27T13:51:34;16.5;;;2.3;;
82805;SDS011;72558;51.000;-3.112;2024-01-27T13:54:33;16.9;;;2.6;;
82805;SDS011;72558;51.000;-3.112;2024-01-27T13:57:34;16.9;;;2.4;;
82805;SDS011;72558;51.000;-3.112;2024-01-27T14:00:34;14.8;;;2.5;;
82805;SDS011;72558;51.000;-3.112;2024-01-27T14:03:34;17.4;;;2.2;;
82805;SDS011;72558;51.000;-3.112;2024-01-27T14:06:34;16.8;;;2.4;;
82805;SDS011;72558;51.000;-3.112;2024-01-27T14:09:34;15.3;;;2.4;;
82805;SDS011;72558;51.000;-3.112;2024-01-27T14:12:34;17.0;;;2.5;;
82805;SDS011;72558;51.000;-3.112;2024-01-27T14:15:34;18.2;;;2.2;;
82805;SDS011;72558;51.000;-3.112;2024-01-27T14:18:34;18.7;;;2.2;;
82805;SDS011;72558;51.000;-3.112;2024-01-27T14:21:34;16.0;;;1.9;;
82805;SDS011;72558;51.000;-3.112;2024-01-27T14:24:34;16.8;;;3.2;;
82805;SDS011;72558;51.000;-3.112;2024-01-27T14:27:33;15.7;;;2.6;;
82805;SDS011;72558;51.000;-3.112;2024-01-27T14:30:34;17.0;;;2.4;;
82805;SDS011;72558;51.000;-3.112;2024-01-27T14:33:33;20.5;;;2.6;;
82805;SDS011;72558;51.000;-3.112;2024-01-27T14:36:33;13.3;;;2.2;;
82805;SDS011;72558;51.000;-3.112;2024-01-27T14:39:34;14.1;;;2.2;;
82805;SDS011;72558;51.000;-3.112;2024-01-27T14:42:34;15.2;;;2.2;;
82805;SDS011;72558;51.000;-3.112;2024-01-27T14:45:33;13.0;;;1.9;;
82805;SDS011;72558;51.000;-3.112;2024-01-27T14:48:34;13.5;;;2.2;;
82805;SDS011;72558;51.000;-3.112;2024-01-27T14:51:34;18.6;;;2.5;;
82805;SDS011;72558;51.000;-3.112;2024-01-27T14:54:33;14.3;;;2.3;;
82805;SDS011;72558;51.000;-3.112;2024-01-27T14:57:34;15.3;;;1.9;;
82805;SDS011;72558;51.000;-3.112;2024-01-27T15:00:34;15.1;;;2.2;;
82805;SDS011;72558;51.000;-3.112;2024-01-27T15:03:34;13.1;;;1.8;;
82805;SDS011;72558;51.000;-3.112;2024-01-27T15:06:34;16.4;;;2.2;;
82805;SDS011;72558;51.000;-3.112;2024-01-27T15:09:34;17.6;;;2.2;;
82805;SDS011;72558;51.000;-3.112;2024-01-27T15:12:34;14.5;;;2.3;;
82805;SDS011;72558;51.000;-3.112;2024-01-27T15:15:34;15.2;;;2.2;;
82805;SDS011;72558;51.000;-3.112;2024-01-27T15:18:34;19.7;;;2.3;;
82805;SDS011;72558;51.000;-3.112;2024-01-27T15:21:34;12.2;;;1.8;;
82805;SDS011;72558;51.000;-3.112;2024-01-27T15:24:34;16.7;;;2.1;;
82805;SDS011;72558;51.000;-3.112;2024-01-27T15:27:33;16.6;;;2.2;;
82805;SDS011;72558;51.000;-3.112;2024-01-27T15:30:34;13.0;;;2.0;;
82805;SDS011;72558;51.000;-3.112;2024-01-27T15:33:34;13.4;;;1.9;;
82805;SDS011;72558;51.000;-3.112;2024-01-27T15:36:33;13.6;;;1.5;;
82805;SDS011;72558;51.000;-3.112;2024-01-27T15:39:34;15.4;;;2.1;;
82805;SDS011;72558;51.000;-3.112;2024-01-27T15:42:34;14.4;;;1.9;;
82805;SDS011;72558;51.000;-3.112;2024-01-27T15:45:33;17.7;;;2.0;;
82805;SDS011;72558;51.000;-3.112;2024-01-27T15:48:34;13.1;;;2.0;;
82805;SDS011;72558;51.000;-3.112;2024-01-27T15:51:33;14.6;;;2.2;;
82805;SDS011;72558;51.000;-3.112;2024-01-27T15:54:33;15.1;;;2.0;;
82805;SDS011;72558;51.000;-3.112;2024-01-27T15:57:34;15.0;;;2.6;;
82805;SDS011;72558;51.000;-3.112;2024-01-27T16:00:33;15.7;;;1.7;;
82805;SDS011;72558;51.000;-3.112;2024-01-27T16:03:34;19.1;;;2.1;;
82805;SDS011;72558;51.000;-3.112;2024-01-27T16:06:34;12.7;;;2.1;;
82805;SDS011;72558;51.000;-3.112;2024-01-27T16:09:34;15.6;;;1.8;;
82805;SDS011;72558;51.000;-3.112;2024-01-27T16:12:34;17.3;;;2.4;;
82805;SDS011;72558;51.000;-3.112;2024-01-27T16:15:34;15.0;;;2.2;;
82805;SDS011;72558;51.000;-3.112;2024-01-27T16:18:34;19.0;;;2.5;;
82805;SDS011;72558;51.000;-3.112;2024-01-27T16:21:34;23.0;;;2.6;;
82805;SDS011;72558;51.000;-3.112;2024-01-27T16:24:34;15.4;;;2.3;;
82805;SDS011;72558;51.000;-3.112;2024-01-27T16:27:33;16.6;;;2.7;;
82805;SDS011;72558;51.000;-3.112;2024-01-27T16:30:34;17.9;;;2.5;;
82805;SDS011;72558;51.000;-3.112;2024-01-27T16:33:33;17.0;;;2.6;;
82805;SDS011;72558;51.000;-3.112;2024-01-27T16:36:34;15.5;;;2.2;;
82805;SDS011;72558;51.000;-3.112;2024-01-27T16:39:34;14.5;;;2.2;;
82805;SDS011;72558;51.000;-3.112;2024-01-27T16:42:34;15.9;;;2.4;;
82805;SDS011;72558;51.000;-3.112;2024-01-27T16:45:34;18.6;;;2.6;;
82805;SDS011;72558;51.000;-3.112;2024-01-27T16:48:33;18.7;;;2.8;;
82805;SDS011;72558;51.000;-3.112;2024-01-27T16:51:34;16.2;;;2.7;;
82805;SDS011;72558;51.000;-3.112;2024-01-27T16:54:34;18.3;;;2.9;;
82805;SDS011;72558;51.000;-3.112;2024-01-27T16:57:33;17.7;;;2.6;;
82805;SDS011;72558;51.000;-3.112;2024-01-27T17:00:34;16.3;;;2.5;;
82805;SDS011;72558;51.000;-3.112;2024-01-27T17:03:33;15.3;;;1.8;;
82805;SDS011;72558;51.000;-3.112;2024-01-27T17:06:34;18.1;;;2.6;;
82805;SDS011;72558;51.000;-3.112;2024-01-27T17:09:34;18.3;;;2.3;;
82805;SDS011;72558;51.000;-3.112;2024-01-27T17:12:34;17.2;;;2.5;;
82805;SDS011;72558;51.000;-3.112;2024-01-27T17:15:34;14.9;;;2.0;;
82805;SDS011;72558;51.000;-3.112;2024-01-27T17:18:34;19.1;;;2.1;;
82805;SDS011;72558;51.000;-3.112;2024-01-27T17:21:33;22.4;;;2.7;;
82805;SDS011;72558;51.000;-3.112;2024-01-27T17:24:34;18.0;;;2.7;;
82805;SDS011;72558;51.000;-3.112;2024-01-27T17:27:33;17.7;;;2.7;;
82805;SDS011;72558;51.000;-3.112;2024-01-27T17:30:34;17.4;;;2.4;;
82805;SDS011;72558;51.000;-3.112;2024-01-27T17:33:34;15.8;;;2.3;;
82805;SDS011;72558;51.000;-3.112;2024-01-27T17:36:34;20.8;;;2.7;;
82805;SDS011;72558;51.000;-3.112;2024-01-27T17:39:34;17.6;;;2.7;;
82805;SDS011;72558;51.000;-3.112;2024-01-27T17:42:33;23.8;;;2.7;;
82805;SDS011;72558;51.000;-3.112;2024-01-27T17:45:33;17.6;;;2.6;;
82805;SDS011;72558;51.000;-3.112;2024-01-27T17:48:34;17.9;;;3.3;;
82805;SDS011;72558;51.000;-3.112;2024-01-27T17:51:34;18.4;;;3.7;;
82805;SDS011;72558;51.000;-3.112;2024-01-27T17:54:34;18.7;;;3.8;;
82805;SDS011;72558;51.000;-3.112;2024-01-27T17:57:34;17.1;;;3.0;;
82805;SDS011;72558;51.000;-3.112;2024-01-27T18:00:33;17.7;;;3.2;;